Weather at Aeroclub de El Chaltén Alf. G.N.A. Walter Omar D Anna

Public forecast

Using degrees Celsius for public forecast. Weather courtesy of forecast.io.

Closest aviation weather report (METAR) to Aeroclub de El Chaltén Alf. G.N.A. Walter Omar D Anna

Report is more than 2 hours old.

Closest report is Lieutenant Julio Gallardo Airport, 128.2 nm (237.4 km) S.

2024/06/13 18:00 (retrieved 3 hours ago)

SCNT 131800Z 30027G38KT 9999 SCT040 08/01 Q0979

Closest aviation forecast (TAF) to Aeroclub de El Chaltén Alf. G.N.A. Walter Omar D Anna

Forecast is more than 6 hours old.

Closest forecast is Lieutenant Julio Gallardo Airport, 128.2 nm (237.4 km) S.

2024/06/13 12:00 (retrieved 9 hours ago)

TAF SCNT 131038Z 1312/1400 33010G25KT 9999 SCT030 TN01/1312Z TX04/1318Z BECMG 1314/1316 27020G35KT TEMPO 1315/1319 5000 SHRASN BKN015 TEMPO 1320/1400 26025G45KT